Time;durP1;ratioP1;P1;durP2;ratioP2;P2;SDS_P1;SDS_P2;PMS_P1;PMS_P2;Temp;Humidity;BMP_temperature;BMP_pressure;BME280_temperature;BME280_humidity;BME280_pressure;Samples;Min_cycle;Max_cycle;Signal;HPM_P1;HPM_P2
2023/02/16 00:00:50;;;;;;;31.42;28.85;;;;;;;;;;5142419;27;20211;-81
2023/02/16 00:03:18;;;;;;;33.22;30.52;;;;;;;;;;5141223;27;20219;-81
2023/02/16 00:05:45;;;;;;;32.97;30.17;;;;;;;;;;5141668;27;20277;-81
2023/02/16 00:08:12;;;;;;;30.67;28.17;;;;;;;;;;5141109;27;20208;-80
2023/02/16 00:10:40;;;;;;;32.83;30.05;;;;;;;;;;5141852;27;20220;-80
2023/02/16 00:16:12;;;;;;;33.40;30.57;;;;;;;;;;5129695;27;20214;-81
2023/02/16 00:18:39;;;;;;;31.75;29.05;;;;;;;;;;5141014;27;20962;-81
2023/02/16 00:21:06;;;;;;;31.95;29.00;;;;;;;;;;5141696;27;20193;-81
2023/02/16 00:23:33;;;;;;;33.03;30.08;;;;;;;;;;5141008;27;20205;-81
2023/02/16 00:26:02;;;;;;;33.60;30.35;;;;;;;;;;5141257;27;20221;-81
2023/02/16 00:28:29;;;;;;;33.00;29.92;;;;;;;;;;5141408;27;20204;-81
2023/02/16 00:30:56;;;;;;;33.70;30.60;;;;;;;;;;5142027;27;20221;-81
2023/02/16 00:33:23;;;;;;;31.05;28.45;;;;;;;;;;5140210;28;20212;-81
2023/02/16 00:35:51;;;;;;;31.40;28.60;;;;;;;;;;5141237;28;20242;-81
2023/02/16 00:38:18;;;;;;;33.88;31.08;;;;;;;;;;5141179;28;20178;-81
2023/02/16 00:40:45;;;;;;;31.80;29.17;;;;;;;;;;5140950;28;20200;-81
2023/02/16 00:43:22;;;;;;;32.65;29.65;;;;;;;;;;5140464;28;20265;-81
2023/02/16 00:45:49;;;;;;;33.38;30.60;;;;;;;;;;5141491;28;20224;-82
2023/02/16 00:48:16;;;;;;;33.30;30.33;;;;;;;;;;5141219;28;20201;-81
2023/02/16 00:50:43;;;;;;;31.67;28.90;;;;;;;;;;5141484;28;20266;-81
2023/02/16 00:53:10;;;;;;;32.67;29.95;;;;;;;;;;5140565;28;20201;-81
2023/02/16 00:55:38;;;;;;;31.05;28.40;;;;;;;;;;5140534;28;20253;-81
2023/02/16 00:58:07;;;;;;;33.10;30.40;;;;;;;;;;5141356;28;20257;-82
2023/02/16 01:00:37;;;;;;;31.85;29.20;;;;;;;;;;5141522;28;20205;-81
2023/02/16 01:03:06;;;;;;;33.80;30.70;;;;;;;;;;5140625;28;20220;-81
2023/02/16 01:05:34;;;;;;;33.45;30.55;;;;;;;;;;5141223;28;20254;-81
2023/02/16 01:13:32;;;;;;;33.88;30.77;;;;;;;;;;5140578;28;20203;-81
2023/02/16 01:16:00;;;;;;;32.75;29.80;;;;;;;;;;5140682;28;20218;-81
2023/02/16 01:18:27;;;;;;;33.70;30.50;;;;;;;;;;5141655;28;20625;-81
2023/02/16 01:20:54;;;;;;;33.75;30.83;;;;;;;;;;5141554;28;20314;-81
2023/02/16 01:23:21;;;;;;;33.47;30.35;;;;;;;;;;5140844;28;20204;-81
2023/02/16 01:25:48;;;;;;;33.45;30.50;;;;;;;;;;5140863;28;20223;-81
2023/02/16 01:28:18;;;;;;;32.92;30.13;;;;;;;;;;5142564;27;20209;-80
2023/02/16 01:30:45;;;;;;;33.30;30.40;;;;;;;;;;5145225;27;20225;-81
2023/02/16 01:33:14;;;;;;;33.85;30.55;;;;;;;;;;5144630;27;20227;-81
2023/02/16 01:35:41;;;;;;;33.17;30.30;;;;;;;;;;5145168;27;20214;-81
2023/02/16 01:38:07;;;;;;;34.47;30.95;;;;;;;;;;5144892;27;20266;-81
2023/02/16 01:40:37;;;;;;;32.25;29.17;;;;;;;;;;5144724;27;20201;-81
2023/02/16 01:43:08;;;;;;;34.75;31.75;;;;;;;;;;5144491;27;20189;-81
2023/02/16 01:45:38;;;;;;;34.55;31.25;;;;;;;;;;5144439;27;20225;-80
2023/02/16 01:48:06;;;;;;;33.30;30.00;;;;;;;;;;5144708;27;20209;-80
2023/02/16 01:50:42;;;;;;;34.88;31.67;;;;;;;;;;5144525;27;20212;-81
2023/02/16 01:53:16;;;;;;;34.42;31.38;;;;;;;;;;5144544;27;20237;-81
2023/02/16 01:55:44;;;;;;;32.45;29.52;;;;;;;;;;5144684;27;20634;-81
2023/02/16 01:58:14;;;;;;;32.70;29.67;;;;;;;;;;5144792;27;20209;-80
2023/02/16 02:01:00;;;;;;;36.03;32.63;;;;;;;;;;5144758;27;20545;-81
2023/02/16 02:06:16;;;;;;;34.42;31.23;;;;;;;;;;5144824;27;20215;-81
2023/02/16 02:08:45;;;;;;;37.05;33.47;;;;;;;;;;5144738;27;20206;-81
2023/02/16 02:11:16;;;;;;;34.80;31.67;;;;;;;;;;5144523;27;20254;-81
2023/02/16 02:13:45;;;;;;;35.75;32.15;;;;;;;;;;5144468;27;20238;-80
2023/02/16 02:16:13;;;;;;;33.35;30.27;;;;;;;;;;5144465;27;20610;-81
2023/02/16 02:18:40;;;;;;;33.33;30.13;;;;;;;;;;5144230;27;20205;-81
2023/02/16 02:24:07;;;;;;;34.83;31.80;;;;;;;;;;5144401;27;20211;-81
2023/02/16 02:27:03;;;;;;;34.70;31.40;;;;;;;;;;5143320;27;20277;-81
2023/02/16 02:29:41;;;;;;;36.83;33.35;;;;;;;;;;5144773;27;20185;-82
2023/02/16 02:32:14;;;;;;;35.90;32.38;;;;;;;;;;5144383;27;20192;-81
2023/02/16 02:34:49;;;;;;;34.28;31.17;;;;;;;;;;5143916;27;20197;-81
2023/02/16 02:37:20;;;;;;;34.28;31.17;;;;;;;;;;5144137;27;20203;-81
2023/02/16 02:39:51;;;;;;;35.83;32.30;;;;;;;;;;5143248;27;20620;-81
2023/02/16 02:42:24;;;;;;;35.40;31.98;;;;;;;;;;5143380;27;20197;-81
2023/02/16 02:44:53;;;;;;;35.13;31.60;;;;;;;;;;5144100;27;20735;-81
2023/02/16 02:47:20;;;;;;;36.33;33.03;;;;;;;;;;5143365;27;20277;-81
2023/02/16 02:49:51;;;;;;;35.85;32.65;;;;;;;;;;5143641;27;20223;-80
2023/02/16 02:52:18;;;;;;;34.35;30.95;;;;;;;;;;5143478;27;20201;-81
2023/02/16 03:03:07;;;;;;;36.15;32.45;;;;;;;;;;5143776;27;20532;-80
2023/02/16 03:05:35;;;;;;;35.22;31.95;;;;;;;;;;5143926;27;20224;-82
2023/02/16 03:08:12;;;;;;;36.53;32.67;;;;;;;;;;5142694;27;20205;-81
2023/02/16 03:13:28;;;;;;;36.03;32.50;;;;;;;;;;5142872;27;20253;-81
2023/02/16 03:15:56;;;;;;;36.53;33.10;;;;;;;;;;5143389;27;20567;-81
2023/02/16 03:29:27;;;;;;;41.28;33.17;;;;;;;;;;5142343;27;20215;-81
2023/02/16 03:31:55;;;;;;;36.55;32.75;;;;;;;;;;5143716;27;20291;-80
2023/02/16 03:34:22;;;;;;;38.47;33.78;;;;;;;;;;5143824;27;20206;-81
2023/02/16 03:36:52;;;;;;;36.58;32.92;;;;;;;;;;5142955;27;20224;-81
2023/02/16 03:39:20;;;;;;;39.08;34.97;;;;;;;;;;5143293;27;20552;-81
2023/02/16 03:41:49;;;;;;;41.67;36.03;;;;;;;;;;5141226;27;20219;-80
2023/02/16 03:44:16;;;;;;;37.05;33.25;;;;;;;;;;5143058;27;20201;-81
2023/02/16 03:46:44;;;;;;;37.45;33.72;;;;;;;;;;5142807;27;20617;-81
2023/02/16 03:49:11;;;;;;;39.22;35.25;;;;;;;;;;5143003;27;20603;-81
2023/02/16 03:51:39;;;;;;;39.10;35.08;;;;;;;;;;5141243;27;20229;-81
2023/02/16 03:54:06;;;;;;;38.75;34.80;;;;;;;;;;5143450;27;20564;-81
2023/02/16 03:56:33;;;;;;;38.50;34.83;;;;;;;;;;5143382;27;20220;-81
2023/02/16 03:59:00;;;;;;;40.08;35.97;;;;;;;;;;5142756;27;20197;-81
2023/02/16 04:01:27;;;;;;;37.75;33.83;;;;;;;;;;5142064;27;20539;-81
2023/02/16 04:03:55;;;;;;;37.72;33.42;;;;;;;;;;5142325;27;20204;-81
2023/02/16 04:06:22;;;;;;;38.67;34.78;;;;;;;;;;5142445;27;20273;-81
2023/02/16 04:08:49;;;;;;;37.08;33.42;;;;;;;;;;5142452;27;20193;-81
2023/02/16 04:14:01;;;;;;;39.30;33.92;;;;;;;;;;5141782;27;20256;-81
2023/02/16 04:16:28;;;;;;;37.55;33.80;;;;;;;;;;5142185;27;20244;-81
2023/02/16 04:18:57;;;;;;;38.97;35.03;;;;;;;;;;5141706;27;20253;-81
2023/02/16 04:21:24;;;;;;;37.22;33.50;;;;;;;;;;5141452;27;20663;-81
2023/02/16 04:23:51;;;;;;;36.75;33.25;;;;;;;;;;5141062;27;20209;-81
2023/02/16 04:26:18;;;;;;;38.10;34.13;;;;;;;;;;5142813;27;20585;-81
2023/02/16 04:28:45;;;;;;;39.20;34.95;;;;;;;;;;5141759;27;20201;-81
2023/02/16 04:31:12;;;;;;;39.13;34.85;;;;;;;;;;5142401;27;20229;-81
2023/02/16 04:33:39;;;;;;;38.42;34.53;;;;;;;;;;5140935;27;20204;-81
2023/02/16 04:36:08;;;;;;;39.65;35.58;;;;;;;;;;5141802;28;20723;-81
2023/02/16 04:38:35;;;;;;;39.03;34.97;;;;;;;;;;5141273;28;20212;-81
2023/02/16 04:41:02;;;;;;;40.67;36.33;;;;;;;;;;5141973;28;20265;-81
2023/02/16 04:43:29;;;;;;;38.65;34.83;;;;;;;;;;5140956;28;20213;-81
2023/02/16 04:45:57;;;;;;;40.15;36.03;;;;;;;;;;5141214;28;20253;-81
2023/02/16 04:48:24;;;;;;;43.15;37.75;;;;;;;;;;5141397;28;20737;-81
2023/02/16 04:50:51;;;;;;;44.55;36.70;;;;;;;;;;5142498;28;20220;-81
2023/02/16 04:53:19;;;;;;;41.33;37.17;;;;;;;;;;5140672;28;20583;-81
2023/02/16 04:55:47;;;;;;;41.20;36.42;;;;;;;;;;5141436;28;20237;-81
2023/02/16 04:58:14;;;;;;;42.40;37.85;;;;;;;;;;5141120;28;20207;-80
2023/02/16 05:00:41;;;;;;;43.85;38.00;;;;;;;;;;5141315;28;20200;-80
2023/02/16 05:03:08;;;;;;;45.33;37.10;;;;;;;;;;5142482;27;20196;-81
2023/02/16 05:05:35;;;;;;;44.53;39.45;;;;;;;;;;5144538;27;20700;-81
2023/02/16 05:08:02;;;;;;;42.83;38.72;;;;;;;;;;5145118;27;20208;-81
2023/02/16 05:10:30;;;;;;;41.90;37.70;;;;;;;;;;5144953;27;20221;-81
2023/02/16 05:15:50;;;;;;;45.63;38.42;;;;;;;;;;5107634;27;20566;-81
2023/02/16 05:18:17;;;;;;;41.15;36.80;;;;;;;;;;5145482;27;20209;-81
2023/02/16 05:23:29;;;;;;;46.03;39.58;;;;;;;;;;5144377;27;20180;-81
2023/02/16 05:25:57;;;;;;;41.92;37.63;;;;;;;;;;5144879;27;20232;-81
2023/02/16 05:28:24;;;;;;;49.00;39.35;;;;;;;;;;5145071;27;20233;-81
2023/02/16 05:30:51;;;;;;;41.17;37.08;;;;;;;;;;5145624;27;20225;-81
2023/02/16 05:33:18;;;;;;;45.78;39.30;;;;;;;;;;5145576;27;20680;-81
2023/02/16 05:35:45;;;;;;;44.08;37.53;;;;;;;;;;5145127;27;20228;-82
2023/02/16 05:38:12;;;;;;;50.30;40.10;;;;;;;;;;5145881;27;20296;-81
2023/02/16 05:40:39;;;;;;;49.65;40.78;;;;;;;;;;5145110;27;20258;-81
2023/02/16 05:43:07;;;;;;;43.72;38.70;;;;;;;;;;5144936;27;20185;-81
2023/02/16 05:45:34;;;;;;;45.08;39.15;;;;;;;;;;5144365;27;20228;-81
2023/02/16 05:48:01;;;;;;;41.42;37.22;;;;;;;;;;5144277;27;20234;-81
2023/02/16 05:50:28;;;;;;;43.90;38.03;;;;;;;;;;5143983;27;20196;-81
2023/02/16 05:52:55;;;;;;;41.67;36.85;;;;;;;;;;5142980;27;20208;-81
2023/02/16 05:55:22;;;;;;;47.92;38.58;;;;;;;;;;5144799;27;20225;-81
2023/02/16 05:57:49;;;;;;;42.55;38.03;;;;;;;;;;5145093;27;20230;-81
2023/02/16 06:00:18;;;;;;;42.40;37.75;;;;;;;;;;5144858;27;20211;-81
2023/02/16 06:02:45;;;;;;;42.75;36.92;;;;;;;;;;5143769;27;20204;-81
2023/02/16 06:05:12;;;;;;;47.15;38.30;;;;;;;;;;5144537;27;20232;-81
2023/02/16 06:07:39;;;;;;;44.08;38.92;;;;;;;;;;5144337;27;20576;-81
2023/02/16 06:10:07;;;;;;;45.30;37.78;;;;;;;;;;5144082;27;20249;-83
2023/02/16 06:12:34;;;;;;;41.53;36.88;;;;;;;;;;5143403;27;20270;-81
2023/02/16 06:15:01;;;;;;;47.35;37.95;;;;;;;;;;5142909;27;20228;-81
2023/02/16 06:17:29;;;;;;;42.72;36.55;;;;;;;;;;5144651;27;20208;-81
2023/02/16 06:19:56;;;;;;;42.15;37.58;;;;;;;;;;5145712;27;20208;-85
2023/02/16 06:22:23;;;;;;;44.13;39.35;;;;;;;;;;5144216;27;20200;-81
2023/02/16 06:24:50;;;;;;;42.97;38.10;;;;;;;;;;5143747;27;20292;-82
2023/02/16 06:27:17;;;;;;;42.28;37.63;;;;;;;;;;5145330;27;20209;-81
2023/02/16 06:29:44;;;;;;;41.75;37.40;;;;;;;;;;5144711;27;20204;-81
2023/02/16 06:32:11;;;;;;;49.90;40.70;;;;;;;;;;5144149;27;20228;-81
2023/02/16 06:34:40;;;;;;;49.05;40.22;;;;;;;;;;5143920;27;20269;-81
2023/02/16 06:37:07;;;;;;;44.25;38.53;;;;;;;;;;5145335;27;20230;-81
2023/02/16 06:39:33;;;;;;;48.38;38.95;;;;;;;;;;5144464;27;20209;-82
2023/02/16 06:42:00;;;;;;;45.47;40.58;;;;;;;;;;5144817;27;20204;-81
2023/02/16 06:44:28;;;;;;;42.92;38.40;;;;;;;;;;5144540;27;20200;-81
2023/02/16 06:46:55;;;;;;;43.13;38.53;;;;;;;;;;5144517;27;20201;-81
2023/02/16 06:49:22;;;;;;;41.92;37.13;;;;;;;;;;5145084;27;20208;-81
2023/02/16 06:51:50;;;;;;;46.47;39.85;;;;;;;;;;5144866;27;20226;-85
2023/02/16 06:54:18;;;;;;;47.78;40.53;;;;;;;;;;5146279;27;20207;-84
2023/02/16 06:56:45;;;;;;;49.45;39.33;;;;;;;;;;5145963;27;20251;-84
2023/02/16 06:59:12;;;;;;;43.40;38.85;;;;;;;;;;5147663;27;20189;-83
2023/02/16 07:01:39;;;;;;;46.60;39.63;;;;;;;;;;5145830;27;20204;-85
2023/02/16 07:04:06;;;;;;;45.58;40.28;;;;;;;;;;5146963;27;20227;-84
2023/02/16 07:06:33;;;;;;;44.55;37.85;;;;;;;;;;5145887;27;20249;-84
2023/02/16 07:09:01;;;;;;;42.47;36.63;;;;;;;;;;5146217;27;20204;-84
2023/02/16 07:11:28;;;;;;;41.00;36.85;;;;;;;;;;5146211;27;20241;-84
2023/02/16 07:13:55;;;;;;;46.20;37.83;;;;;;;;;;5146519;27;20188;-84
2023/02/16 07:16:22;;;;;;;42.17;36.72;;;;;;;;;;5145841;27;20242;-83
2023/02/16 07:18:50;;;;;;;41.53;37.00;;;;;;;;;;5145681;27;20688;-84
2023/02/16 07:21:17;;;;;;;42.17;37.65;;;;;;;;;;5145960;27;20205;-84
2023/02/16 07:23:44;;;;;;;40.17;36.00;;;;;;;;;;5146116;27;20234;-83
2023/02/16 07:26:12;;;;;;;44.92;36.33;;;;;;;;;;5145864;27;20220;-84
2023/02/16 07:28:39;;;;;;;40.75;36.53;;;;;;;;;;5145759;27;20203;-85
2023/02/16 07:31:08;;;;;;;45.17;38.70;;;;;;;;;;5145336;27;20208;-85
2023/02/16 07:33:35;;;;;;;44.05;37.15;;;;;;;;;;5146208;27;20624;-84
2023/02/16 07:36:02;;;;;;;46.95;40.08;;;;;;;;;;5145243;27;20269;-82
2023/02/16 07:38:29;;;;;;;40.33;36.00;;;;;;;;;;5145951;27;20200;-84
2023/02/16 07:40:56;;;;;;;43.30;36.65;;;;;;;;;;5145459;27;20226;-83
2023/02/16 07:43:25;;;;;;;45.30;37.17;;;;;;;;;;5146456;27;20263;-84
2023/02/16 07:45:53;;;;;;;39.72;35.63;;;;;;;;;;5145666;27;20220;-84
2023/02/16 07:48:20;;;;;;;49.97;37.88;;;;;;;;;;5146994;27;20206;-84
2023/02/16 07:50:47;;;;;;;40.53;36.20;;;;;;;;;;5146488;27;20230;-85
2023/02/16 07:53:14;;;;;;;39.80;35.65;;;;;;;;;;5145354;27;20225;-83
2023/02/16 07:55:41;;;;;;;38.83;34.85;;;;;;;;;;5137465;27;20232;-87
2023/02/16 07:58:08;;;;;;;41.90;37.58;;;;;;;;;;5138211;27;20234;-88
2023/02/16 08:00:37;;;;;;;39.33;35.42;;;;;;;;;;5139503;27;20196;-84
2023/02/16 08:03:04;;;;;;;38.70;34.70;;;;;;;;;;5143634;27;20205;-86
2023/02/16 08:05:31;;;;;;;38.63;34.40;;;;;;;;;;5142875;27;20228;-85
2023/02/16 08:07:58;;;;;;;39.35;34.97;;;;;;;;;;5143383;27;20224;-85
2023/02/16 08:10:25;;;;;;;39.30;35.10;;;;;;;;;;5143212;27;20250;-85
2023/02/16 08:12:52;;;;;;;38.50;34.60;;;;;;;;;;5143324;27;20632;-86
2023/02/16 08:15:19;;;;;;;43.72;35.70;;;;;;;;;;5142781;27;20273;-86
2023/02/16 08:17:48;;;;;;;37.15;33.08;;;;;;;;;;5142688;27;20201;-85
2023/02/16 08:20:15;;;;;;;39.83;35.80;;;;;;;;;;5142437;27;20546;-86
2023/02/16 08:22:42;;;;;;;38.05;34.55;;;;;;;;;;5141489;27;20245;-88
2023/02/16 08:25:10;;;;;;;38.42;34.45;;;;;;;;;;5142052;27;20225;-86
2023/02/16 08:27:37;;;;;;;40.60;36.53;;;;;;;;;;5141021;27;20553;-85
2023/02/16 08:30:04;;;;;;;41.45;37.17;;;;;;;;;;5143070;27;20200;-86
2023/02/16 08:32:32;;;;;;;38.50;34.60;;;;;;;;;;5141304;27;20213;-86
2023/02/16 08:35:00;;;;;;;39.92;35.78;;;;;;;;;;5141002;28;20218;-86
2023/02/16 08:37:27;;;;;;;38.50;34.80;;;;;;;;;;5139417;27;20209;-86
2023/02/16 08:39:55;;;;;;;40.13;35.65;;;;;;;;;;5140693;28;20208;-86
2023/02/16 08:42:22;;;;;;;37.75;34.05;;;;;;;;;;5141843;28;20201;-86
2023/02/16 08:44:49;;;;;;;41.60;37.35;;;;;;;;;;5142045;28;20253;-85
2023/02/16 08:47:18;;;;;;;37.35;33.40;;;;;;;;;;5141867;27;20746;-85
2023/02/16 08:49:46;;;;;;;38.55;34.58;;;;;;;;;;5141784;28;20785;-86
2023/02/16 08:52:14;;;;;;;36.75;33.05;;;;;;;;;;5140110;28;20223;-85
2023/02/16 08:54:41;;;;;;;40.60;36.57;;;;;;;;;;5139586;28;20665;-85
2023/02/16 08:57:09;;;;;;;40.33;35.00;;;;;;;;;;5140502;28;20431;-84
2023/02/16 08:59:36;;;;;;;40.85;36.75;;;;;;;;;;5141120;27;20300;-84
2023/02/16 09:02:03;;;;;;;37.20;33.47;;;;;;;;;;5142098;28;20204;-85
2023/02/16 09:04:30;;;;;;;37.23;33.53;;;;;;;;;;5142138;28;20530;-85
2023/02/16 09:06:58;;;;;;;39.10;35.13;;;;;;;;;;5141078;28;20496;-85
2023/02/16 09:09:27;;;;;;;39.05;35.10;;;;;;;;;;5141953;28;20228;-85
2023/02/16 09:11:55;;;;;;;37.13;33.25;;;;;;;;;;5139564;27;20765;-85
2023/02/16 09:14:21;;;;;;;38.35;34.50;;;;;;;;;;5141548;28;20258;-85
2023/02/16 09:16:48;;;;;;;38.22;34.33;;;;;;;;;;5140520;28;20628;-86
2023/02/16 09:19:16;;;;;;;39.93;35.80;;;;;;;;;;5141902;28;20228;-82
2023/02/16 09:21:44;;;;;;;38.77;35.13;;;;;;;;;;5140592;28;20438;-84
2023/02/16 09:24:11;;;;;;;40.17;36.33;;;;;;;;;;5140754;28;20418;-83
2023/02/16 09:26:41;;;;;;;42.97;38.40;;;;;;;;;;5139729;27;20704;-84
2023/02/16 09:29:09;;;;;;;39.83;35.90;;;;;;;;;;5146861;28;20844;-84
2023/02/16 09:31:38;;;;;;;40.45;36.72;;;;;;;;;;5148948;28;20277;-84
2023/02/16 09:34:06;;;;;;;41.13;37.00;;;;;;;;;;5150260;28;20214;-83
2023/02/16 09:36:33;;;;;;;40.17;36.30;;;;;;;;;;5151284;28;20225;-84
2023/02/16 09:39:01;;;;;;;40.47;36.55;;;;;;;;;;5155141;28;20451;-84
2023/02/16 09:41:30;;;;;;;40.87;36.90;;;;;;;;;;5155174;28;20601;-83
2023/02/16 09:44:00;;;;;;;38.83;34.97;;;;;;;;;;5155392;28;20446;-84
2023/02/16 09:46:29;;;;;;;38.30;34.27;;;;;;;;;;5153692;28;20288;-84
2023/02/16 09:48:56;;;;;;;38.33;34.50;;;;;;;;;;5148801;27;20439;-84
2023/02/16 09:51:25;;;;;;;37.47;33.67;;;;;;;;;;5152239;27;20201;-84
2023/02/16 09:53:55;;;;;;;40.15;36.28;;;;;;;;;;5152539;27;20225;-83
2023/02/16 09:56:27;;;;;;;37.90;34.30;;;;;;;;;;5158080;27;20224;-84
2023/02/16 09:58:56;;;;;;;39.97;35.97;;;;;;;;;;5159083;27;20948;-84
2023/02/16 10:01:30;;;;;;;38.97;35.38;;;;;;;;;;5158180;27;20185;-84
2023/02/16 10:04:02;;;;;;;39.88;36.13;;;;;;;;;;5156831;27;20202;-83
2023/02/16 10:06:39;;;;;;;40.80;37.10;;;;;;;;;;5146174;27;20225;-83
2023/02/16 10:09:08;;;;;;;39.63;36.10;;;;;;;;;;5149653;27;20533;-83
2023/02/16 10:11:40;;;;;;;40.67;36.53;;;;;;;;;;5154637;27;20514;-84
2023/02/16 10:14:08;;;;;;;39.53;35.50;;;;;;;;;;5154562;27;20448;-84
2023/02/16 10:16:40;;;;;;;38.60;35.13;;;;;;;;;;5154292;27;20485;-83
2023/02/16 10:19:14;;;;;;;38.87;35.23;;;;;;;;;;5153784;27;20459;-84
2023/02/16 10:21:44;;;;;;;38.87;35.20;;;;;;;;;;5153837;27;20447;-84
2023/02/16 10:24:12;;;;;;;39.80;36.17;;;;;;;;;;5147559;27;20809;-84
2023/02/16 10:26:42;;;;;;;38.20;34.43;;;;;;;;;;5145901;27;20460;-84
2023/02/16 10:29:12;;;;;;;38.40;34.70;;;;;;;;;;5144182;27;20416;-84
2023/02/16 10:31:42;;;;;;;41.33;37.33;;;;;;;;;;5143970;27;20440;-84
2023/02/16 10:34:17;;;;;;;39.63;35.93;;;;;;;;;;5144582;27;20267;-83
2023/02/16 10:36:52;;;;;;;42.53;38.23;;;;;;;;;;5142805;27;20453;-84
2023/02/16 10:39:21;;;;;;;39.70;35.60;;;;;;;;;;5143871;27;20456;-84
2023/02/16 10:41:51;;;;;;;38.40;35.03;;;;;;;;;;5146150;27;20894;-83
2023/02/16 10:44:21;;;;;;;40.20;36.33;;;;;;;;;;5145833;27;20451;-85
2023/02/16 10:46:55;;;;;;;38.97;35.00;;;;;;;;;;5145082;27;20454;-84
2023/02/16 10:49:22;;;;;;;39.53;35.23;;;;;;;;;;5143952;27;20427;-84
2023/02/16 10:51:50;;;;;;;36.17;32.77;;;;;;;;;;5143372;27;20458;-84
2023/02/16 10:54:19;;;;;;;39.30;35.40;;;;;;;;;;5143013;27;20413;-86
2023/02/16 10:56:51;;;;;;;38.87;35.53;;;;;;;;;;5142612;27;20463;-86
2023/02/16 10:59:19;;;;;;;40.37;36.37;;;;;;;;;;5143424;27;20468;-87
2023/02/16 11:01:48;;;;;;;40.47;36.70;;;;;;;;;;5148091;27;20841;-86
2023/02/16 11:04:37;;;;;;;40.20;36.30;;;;;;;;;;5145896;27;20516;-86
2023/02/16 11:07:05;;;;;;;37.70;34.30;;;;;;;;;;5144939;27;20436;-86
2023/02/16 11:09:33;;;;;;;33.60;30.50;;;;;;;;;;5143911;27;20422;-82
2023/02/16 11:12:00;;;;;;;41.23;36.87;;;;;;;;;;5141762;27;20483;-82
2023/02/16 11:14:29;;;;;;;40.10;36.30;;;;;;;;;;5144167;27;20416;-83
2023/02/16 11:17:07;;;;;;;41.40;37.47;;;;;;;;;;5143123;27;20422;-82
2023/02/16 11:19:36;;;;;;;41.10;37.30;;;;;;;;;;5144097;27;20427;-82
2023/02/16 11:22:03;;;;;;;42.93;38.77;;;;;;;;;;5142613;27;20467;-83
2023/02/16 11:24:32;;;;;;;40.10;35.93;;;;;;;;;;5144341;27;20481;-82
2023/02/16 11:27:03;;;;;;;41.93;37.83;;;;;;;;;;5143490;27;20478;-82
2023/02/16 11:29:31;;;;;;;40.10;35.93;;;;;;;;;;5143000;27;20471;-82
2023/02/16 11:31:58;;;;;;;41.67;37.40;;;;;;;;;;5144170;27;20441;-82
2023/02/16 11:34:32;;;;;;;42.20;38.10;;;;;;;;;;5142019;27;20465;-82
2023/02/16 11:37:05;;;;;;;39.83;36.07;;;;;;;;;;5142517;27;20417;-82
2023/02/16 11:39:35;;;;;;;40.40;36.67;;;;;;;;;;5142292;27;21127;-83
2023/02/16 11:42:03;;;;;;;36.87;33.40;;;;;;;;;;5140873;27;20482;-82
2023/02/16 11:44:32;;;;;;;40.80;37.20;;;;;;;;;;5141790;27;20419;-83
2023/02/16 11:47:00;;;;;;;41.63;37.70;;;;;;;;;;5141604;27;20432;-82
2023/02/16 11:49:32;;;;;;;39.67;35.67;;;;;;;;;;5141440;27;20460;-82
2023/02/16 11:51:59;;;;;;;39.87;36.10;;;;;;;;;;5140849;27;20422;-82
2023/02/16 11:54:27;;;;;;;28.43;26.13;;;;;;;;;;5140542;27;20463;-82
2023/02/16 11:57:05;;;;;;;43.33;38.90;;;;;;;;;;5142045;27;20459;-82
2023/02/16 11:59:34;;;;;;;41.30;37.40;;;;;;;;;;5141925;27;20536;-82
2023/02/16 12:02:25;;;;;;;42.37;38.33;;;;;;;;;;5140290;27;20427;-83
2023/02/16 12:04:59;;;;;;;40.23;36.47;;;;;;;;;;5142087;27;20480;-82
2023/02/16 12:07:31;;;;;;;39.80;36.20;;;;;;;;;;5141403;27;20476;-82
2023/02/16 12:10:03;;;;;;;35.67;32.47;;;;;;;;;;5141393;27;20416;-83
2023/02/16 12:12:32;;;;;;;40.23;36.63;;;;;;;;;;5140039;27;20431;-82
2023/02/16 12:15:03;;;;;;;40.03;36.37;;;;;;;;;;5140596;27;20479;-82
2023/02/16 12:17:44;;;;;;;37.10;33.30;;;;;;;;;;5141523;27;20450;-82
2023/02/16 12:20:18;;;;;;;41.90;37.90;;;;;;;;;;5140898;27;20455;-82
2023/02/16 12:22:47;;;;;;;42.27;38.17;;;;;;;;;;5140549;27;20436;-82
2023/02/16 12:25:23;;;;;;;34.97;31.93;;;;;;;;;;5140789;27;20465;-82
2023/02/16 12:27:52;;;;;;;38.03;34.50;;;;;;;;;;5140943;27;20426;-82
2023/02/16 12:30:24;;;;;;;40.63;37.00;;;;;;;;;;5140203;27;20483;-81
2023/02/16 12:32:58;;;;;;;38.27;34.47;;;;;;;;;;5139476;27;20447;-82
2023/02/16 12:35:33;;;;;;;39.87;35.77;;;;;;;;;;5140636;27;20834;-82
2023/02/16 12:38:03;;;;;;;38.97;35.37;;;;;;;;;;5140456;27;20511;-82
2023/02/16 12:40:37;;;;;;;38.20;34.70;;;;;;;;;;5140845;28;20393;-82
2023/02/16 12:43:12;;;;;;;39.77;35.67;;;;;;;;;;5139598;28;20461;-82
2023/02/16 12:45:41;;;;;;;38.10;34.53;;;;;;;;;;5138760;27;20448;-82
2023/02/16 12:48:16;;;;;;;40.17;36.47;;;;;;;;;;5140079;28;20414;-85
2023/02/16 12:50:44;;;;;;;39.47;35.67;;;;;;;;;;5138830;28;20476;-81
2023/02/16 12:53:19;;;;;;;40.43;36.50;;;;;;;;;;5138033;28;20947;-82
2023/02/16 12:55:49;;;;;;;40.77;36.73;;;;;;;;;;5138144;28;20958;-82
2023/02/16 12:58:18;;;;;;;37.13;33.20;;;;;;;;;;5139501;27;20407;-82
2023/02/16 13:00:47;;;;;;;40.60;36.93;;;;;;;;;;5139675;28;20407;-81
2023/02/16 13:03:24;;;;;;;39.83;36.13;;;;;;;;;;5134949;28;20798;-87
2023/02/16 13:05:53;;;;;;;37.47;34.00;;;;;;;;;;5139169;28;20448;-88
2023/02/16 13:08:25;;;;;;;41.13;37.13;;;;;;;;;;5139208;28;20536;-82
2023/02/16 13:10:56;;;;;;;37.83;34.43;;;;;;;;;;5138477;27;20489;-85
2023/02/16 13:13:25;;;;;;;37.30;33.90;;;;;;;;;;5142315;27;20471;-86
2023/02/16 13:16:02;;;;;;;37.97;34.77;;;;;;;;;;5142258;28;20477;-85
2023/02/16 13:18:31;;;;;;;39.67;35.80;;;;;;;;;;5143251;28;20432;-85
2023/02/16 13:21:01;;;;;;;40.37;36.47;;;;;;;;;;5142426;27;20445;-85
2023/02/16 13:23:44;;;;;;;40.33;36.60;;;;;;;;;;5142581;27;20932;-85
2023/02/16 13:26:20;;;;;;;39.10;35.50;;;;;;;;;;5146273;27;20428;-85
2023/02/16 13:28:52;;;;;;;40.83;36.90;;;;;;;;;;5147346;27;20468;-85
2023/02/16 13:31:29;;;;;;;41.43;37.30;;;;;;;;;;5146308;27;20459;-85
2023/02/16 13:34:04;;;;;;;40.87;37.17;;;;;;;;;;5146674;27;20535;-84
2023/02/16 13:36:37;;;;;;;37.03;32.80;;;;;;;;;;5147431;27;20492;-85
2023/02/16 13:39:17;;;;;;;40.63;36.93;;;;;;;;;;5147382;27;20412;-85
2023/02/16 13:41:56;;;;;;;37.33;33.73;;;;;;;;;;5146978;27;20439;-85
2023/02/16 13:44:24;;;;;;;39.57;35.57;;;;;;;;;;5146960;27;20439;-86
2023/02/16 13:46:52;;;;;;;41.73;37.60;;;;;;;;;;5147118;27;20487;-85
2023/02/16 13:49:29;;;;;;;38.70;35.10;;;;;;;;;;5146784;27;21003;-85
2023/02/16 13:51:57;;;;;;;40.43;36.70;;;;;;;;;;5145903;27;20431;-85
2023/02/16 13:54:26;;;;;;;38.70;35.00;;;;;;;;;;5146918;27;20476;-86
2023/02/16 13:56:55;;;;;;;39.53;35.93;;;;;;;;;;5146202;27;20470;-85
2023/02/16 13:59:40;;;;;;;38.37;35.00;;;;;;;;;;5146858;27;20423;-85
2023/02/16 14:02:10;;;;;;;42.97;38.97;;;;;;;;;;5146511;27;20423;-85
2023/02/16 14:04:56;;;;;;;40.27;36.67;;;;;;;;;;5146524;27;20418;-85
2023/02/16 14:07:34;;;;;;;37.53;34.20;;;;;;;;;;5145487;27;20431;-88
2023/02/16 14:10:01;;;;;;;39.03;35.40;;;;;;;;;;5144792;27;20418;-84
2023/02/16 14:12:33;;;;;;;35.63;32.37;;;;;;;;;;5144956;27;20431;-83
2023/02/16 14:15:01;;;;;;;40.83;37.03;;;;;;;;;;5144019;27;20470;-84
2023/02/16 14:17:29;;;;;;;40.73;36.37;;;;;;;;;;5144088;27;20447;-84
2023/02/16 14:19:58;;;;;;;41.50;37.73;;;;;;;;;;5143805;27;20860;-84
2023/02/16 14:22:29;;;;;;;39.50;35.80;;;;;;;;;;5143905;27;20427;-84
2023/02/16 14:24:59;;;;;;;39.20;35.57;;;;;;;;;;5144352;27;20534;-84
2023/02/16 14:27:47;;;;;;;38.57;34.70;;;;;;;;;;5144848;27;20468;-84
2023/02/16 14:30:23;;;;;;;40.60;36.50;;;;;;;;;;5144825;27;20451;-85
2023/02/16 14:32:56;;;;;;;35.63;32.47;;;;;;;;;;5144045;27;20433;-84
2023/02/16 14:35:25;;;;;;;33.87;30.97;;;;;;;;;;5142997;27;20894;-84
2023/02/16 14:37:54;;;;;;;39.70;35.97;;;;;;;;;;5144182;27;20426;-85
2023/02/16 14:40:23;;;;;;;30.37;27.97;;;;;;;;;;5144732;27;20409;-85
2023/02/16 14:42:56;;;;;;;34.20;31.07;;;;;;;;;;5144673;27;20410;-85
2023/02/16 14:45:42;;;;;;;40.33;36.33;;;;;;;;;;5145524;27;20434;-84
2023/02/16 14:48:15;;;;;;;36.53;33.13;;;;;;;;;;5145048;27;20451;-84
2023/02/16 14:50:53;;;;;;;39.40;35.73;;;;;;;;;;5144365;27;20469;-85
2023/02/16 14:53:36;;;;;;;37.10;33.60;;;;;;;;;;5144209;27;20418;-84
2023/02/16 14:56:21;;;;;;;42.53;38.23;;;;;;;;;;5143905;27;20467;-85
2023/02/16 14:58:54;;;;;;;42.27;38.47;;;;;;;;;;5144133;27;20451;-84
2023/02/16 15:01:22;;;;;;;41.47;37.57;;;;;;;;;;5142308;27;20972;-85
2023/02/16 15:03:50;;;;;;;43.77;39.47;;;;;;;;;;5144096;27;20418;-84
2023/02/16 15:06:20;;;;;;;40.67;36.60;;;;;;;;;;5143566;27;20945;-84
2023/02/16 15:08:49;;;;;;;40.27;36.17;;;;;;;;;;5144406;27;20507;-84
2023/02/16 15:11:19;;;;;;;43.57;39.37;;;;;;;;;;5137461;27;20442;-86
2023/02/16 15:13:50;;;;;;;42.50;38.40;;;;;;;;;;5142653;27;20482;-84